This is the latest recevied weather packets stored in our database for station/object JS1SZZ-13. If no packets are shown the sender has not sent any weather packets the latest 10 day(s).
| Time | Temp. | Humidity | Pressure | Rain* | Wind** | Luminosity | Snow |
|---|---|---|---|---|---|---|---|
| 1777604700 | 14.44° C | 91% | 999.9 hPa | 0 mm | - | - | - |
| 1777603800 | 14.44° C | 92% | 1000.1 hPa | 0 mm | - | - | - |
| 1777602899 | 13.33° C | 93% | 1001.2 hPa | 0 mm | - | - | - |
| 1777602000 | 12.78° C | 94% | 1001.8 hPa | 0 mm | - | - | - |
| 1777601100 | 12.78° C | 94% | 1001.7 hPa | 0 mm | - | - | - |
| 1777600200 | 11.67° C | 95% | 1002.4 hPa | 0.51 mm | - | - | - |
| 1777599300 | 11.11° C | 95% | 1002.9 hPa | 0.76 mm | - | - | - |
| 1777598399 | 10.56° C | 95% | 1004.1 hPa | 2.03 mm | - | - | - |
| 1777597500 | 10.56° C | 96% | 1004.1 hPa | 2.79 mm | - | - | - |
| 1777596600 | 9.44° C | 95% | 1005 hPa | 3.05 mm | - | - | - |
| 1777595700 | 9.44° C | 96% | 1005.3 hPa | 3.05 mm | - | - | - |
| 1777594801 | 9.44° C | 96% | 1005.6 hPa | 3.05 mm | - | - | - |
| 1777593900 | 8.89° C | 96% | 1006.1 hPa | 3.56 mm | - | - | - |
| 1777592999 | 8.89° C | 96% | 1006.7 hPa | 3.81 mm | - | - | - |
| 1777592101 | 8.89° C | 96% | 1007.1 hPa | 4.32 mm | - | - | - |
| 1777591200 | 8.89° C | 96% | 1007.5 hPa | 4.06 mm | - | - | - |
| 1777590300 | 8.89° C | 96% | 1007.9 hPa | 4.32 mm | - | - | - |
| 1777589400 | 8.33° C | 95% | 1008.3 hPa | 4.06 mm | - | - | - |
| 1777588501 | 8.33° C | 96% | 1008.6 hPa | 4.32 mm | - | - | - |
| 1777587600 | 8.33° C | 96% | 1008.7 hPa | 6.35 mm | - | - | - |
| 1777586701 | 8.33° C | 96% | 1009 hPa | 6.35 mm | - | - | - |
| 1777585800 | 8.33° C | 96% | 1009.6 hPa | 6.1 mm | - | - | - |
| 1777584899 | 8.33° C | 96% | 1009.9 hPa | 4.57 mm | - | - | - |
| 1777584001 | 8.33° C | 96% | 1010.4 hPa | 2.54 mm | - | - | - |
| 1777583100 | 8.33° C | 96% | 1010.2 hPa | 1.78 mm | - | - | - |
* Rain latest hour (hover to see other rain measurements)
** Current wind speed in m/s (hover to see current wind gust speed)